sensor_id;sensor_type;location;lat;lon;timestamp;P1;durP1;ratioP1;P2;durP2;ratioP2
4724;SDS011;2376;53.544;10.226;2024-03-23T00:54:45;19.60;;;4.50;;
4724;SDS011;2376;53.544;10.226;2024-03-23T00:57:12;21.20;;;3.90;;
4724;SDS011;2376;53.544;10.226;2024-03-23T00:59:38;20.33;;;4.63;;
4724;SDS011;2376;53.544;10.226;2024-03-23T01:02:04;12.70;;;3.50;;
4724;SDS011;2376;53.544;10.226;2024-03-23T01:04:30;20.37;;;4.67;;
4724;SDS011;2376;53.544;10.226;2024-03-23T01:06:57;22.53;;;5.17;;
4724;SDS011;2376;53.544;10.226;2024-03-23T01:09:22;14.10;;;4.27;;
4724;SDS011;2376;53.544;10.226;2024-03-23T01:11:50;12.00;;;4.40;;
4724;SDS011;2376;53.544;10.226;2024-03-23T01:14:16;19.00;;;4.13;;
4724;SDS011;2376;53.544;10.226;2024-03-23T01:16:43;20.40;;;4.07;;
4724;SDS011;2376;53.544;10.226;2024-03-23T01:19:08;14.03;;;3.80;;
4724;SDS011;2376;53.544;10.226;2024-03-23T01:21:35;20.77;;;4.50;;
4724;SDS011;2376;53.544;10.226;2024-03-23T01:24:01;31.90;;;4.67;;
4724;SDS011;2376;53.544;10.226;2024-03-23T01:26:28;20.60;;;4.87;;
4724;SDS011;2376;53.544;10.226;2024-03-23T01:28:55;17.07;;;4.77;;
4724;SDS011;2376;53.544;10.226;2024-03-23T01:31:21;15.47;;;4.60;;
4724;SDS011;2376;53.544;10.226;2024-03-23T01:33:47;18.87;;;3.97;;
4724;SDS011;2376;53.544;10.226;2024-03-23T01:36:14;19.47;;;4.07;;
4724;SDS011;2376;53.544;10.226;2024-03-23T01:38:40;24.37;;;4.77;;
4724;SDS011;2376;53.544;10.226;2024-03-23T01:41:06;10.40;;;4.00;;
4724;SDS011;2376;53.544;10.226;2024-03-23T01:43:32;12.30;;;3.07;;
4724;SDS011;2376;53.544;10.226;2024-03-23T01:46:00;22.50;;;5.40;;
4724;SDS011;2376;53.544;10.226;2024-03-23T01:48:26;17.67;;;4.40;;
4724;SDS011;2376;53.544;10.226;2024-03-23T01:50:52;13.30;;;3.33;;
4724;SDS011;2376;53.544;10.226;2024-03-23T01:53:18;24.23;;;5.73;;
4724;SDS011;2376;53.544;10.226;2024-03-23T01:55:47;18.27;;;4.07;;
4724;SDS011;2376;53.544;10.226;2024-03-23T01:58:13;11.33;;;3.60;;
4724;SDS011;2376;53.544;10.226;2024-03-23T02:00:40;15.40;;;4.33;;
4724;SDS011;2376;53.544;10.226;2024-03-23T02:05:52;21.87;;;4.60;;
4724;SDS011;2376;53.544;10.226;2024-03-23T02:08:19;20.57;;;5.73;;
4724;SDS011;2376;53.544;10.226;2024-03-23T02:10:47;19.70;;;4.40;;
4724;SDS011;2376;53.544;10.226;2024-03-23T02:13:13;16.53;;;3.80;;
4724;SDS011;2376;53.544;10.226;2024-03-23T02:15:40;26.33;;;6.10;;
4724;SDS011;2376;53.544;10.226;2024-03-23T02:18:06;17.97;;;5.10;;
4724;SDS011;2376;53.544;10.226;2024-03-23T02:20:35;23.57;;;4.20;;
4724;SDS011;2376;53.544;10.226;2024-03-23T02:23:02;19.17;;;3.73;;
4724;SDS011;2376;53.544;10.226;2024-03-23T02:25:31;22.70;;;4.13;;
4724;SDS011;2376;53.544;10.226;2024-03-23T02:27:56;19.03;;;3.63;;
4724;SDS011;2376;53.544;10.226;2024-03-23T02:30:23;13.67;;;4.13;;
4724;SDS011;2376;53.544;10.226;2024-03-23T02:32:49;18.97;;;4.07;;
4724;SDS011;2376;53.544;10.226;2024-03-23T02:35:16;24.93;;;5.70;;
4724;SDS011;2376;53.544;10.226;2024-03-23T02:37:41;12.80;;;3.80;;
4724;SDS011;2376;53.544;10.226;2024-03-23T02:40:09;12.33;;;3.60;;
4724;SDS011;2376;53.544;10.226;2024-03-23T02:42:35;15.00;;;4.80;;
4724;SDS011;2376;53.544;10.226;2024-03-23T02:45:02;7.23;;;3.17;;
4724;SDS011;2376;53.544;10.226;2024-03-23T02:47:29;19.13;;;5.10;;
4724;SDS011;2376;53.544;10.226;2024-03-23T02:49:56;17.50;;;4.00;;
4724;SDS011;2376;53.544;10.226;2024-03-23T02:52:22;12.60;;;3.73;;
4724;SDS011;2376;53.544;10.226;2024-03-23T02:54:49;19.07;;;4.33;;
4724;SDS011;2376;53.544;10.226;2024-03-23T02:57:16;15.43;;;3.40;;
4724;SDS011;2376;53.544;10.226;2024-03-23T02:59:42;16.77;;;4.60;;
4724;SDS011;2376;53.544;10.226;2024-03-23T03:02:08;13.37;;;3.67;;
4724;SDS011;2376;53.544;10.226;2024-03-23T03:04:35;24.27;;;4.43;;
4724;SDS011;2376;53.544;10.226;2024-03-23T03:07:01;15.80;;;4.10;;
4724;SDS011;2376;53.544;10.226;2024-03-23T03:09:27;19.87;;;4.43;;
4724;SDS011;2376;53.544;10.226;2024-03-23T03:11:53;27.30;;;5.10;;
4724;SDS011;2376;53.544;10.226;2024-03-23T03:14:21;17.50;;;4.67;;
4724;SDS011;2376;53.544;10.226;2024-03-23T03:16:47;18.83;;;4.30;;
4724;SDS011;2376;53.544;10.226;2024-03-23T03:19:14;23.67;;;4.50;;
4724;SDS011;2376;53.544;10.226;2024-03-23T03:21:41;14.93;;;4.27;;
4724;SDS011;2376;53.544;10.226;2024-03-23T03:24:08;26.37;;;4.70;;
4724;SDS011;2376;53.544;10.226;2024-03-23T03:26:34;9.60;;;4.47;;
4724;SDS011;2376;53.544;10.226;2024-03-23T03:29:01;15.37;;;3.73;;
4724;SDS011;2376;53.544;10.226;2024-03-23T03:31:28;11.67;;;5.50;;
4724;SDS011;2376;53.544;10.226;2024-03-23T03:33:55;7.70;;;3.50;;
4724;SDS011;2376;53.544;10.226;2024-03-23T03:36:21;14.70;;;5.40;;
4724;SDS011;2376;53.544;10.226;2024-03-23T03:38:47;24.00;;;4.77;;
4724;SDS011;2376;53.544;10.226;2024-03-23T03:41:13;23.23;;;4.03;;
4724;SDS011;2376;53.544;10.226;2024-03-23T03:43:40;22.33;;;3.97;;
4724;SDS011;2376;53.544;10.226;2024-03-23T03:46:06;16.20;;;3.70;;
4724;SDS011;2376;53.544;10.226;2024-03-23T03:48:34;10.90;;;3.80;;
4724;SDS011;2376;53.544;10.226;2024-03-23T03:51:00;18.13;;;3.27;;
4724;SDS011;2376;53.544;10.226;2024-03-23T03:53:26;12.07;;;4.10;;
4724;SDS011;2376;53.544;10.226;2024-03-23T03:55:52;22.63;;;5.27;;
4724;SDS011;2376;53.544;10.226;2024-03-23T03:58:19;17.40;;;4.83;;
4724;SDS011;2376;53.544;10.226;2024-03-23T04:00:45;16.33;;;4.70;;
4724;SDS011;2376;53.544;10.226;2024-03-23T04:03:11;23.87;;;5.03;;
4724;SDS011;2376;53.544;10.226;2024-03-23T04:05:38;17.47;;;5.20;;
4724;SDS011;2376;53.544;10.226;2024-03-23T04:08:05;12.40;;;3.50;;
4724;SDS011;2376;53.544;10.226;2024-03-23T04:10:32;23.30;;;4.20;;
4724;SDS011;2376;53.544;10.226;2024-03-23T04:12:59;14.67;;;4.90;;
4724;SDS011;2376;53.544;10.226;2024-03-23T04:15:26;15.40;;;4.40;;
4724;SDS011;2376;53.544;10.226;2024-03-23T04:17:53;20.67;;;4.23;;
4724;SDS011;2376;53.544;10.226;2024-03-23T04:20:18;16.13;;;3.97;;
4724;SDS011;2376;53.544;10.226;2024-03-23T04:22:46;14.63;;;4.63;;
4724;SDS011;2376;53.544;10.226;2024-03-23T04:25:13;12.77;;;3.17;;
4724;SDS011;2376;53.544;10.226;2024-03-23T04:27:40;18.80;;;5.23;;
4724;SDS011;2376;53.544;10.226;2024-03-23T04:30:07;15.17;;;5.03;;
4724;SDS011;2376;53.544;10.226;2024-03-23T04:32:36;11.63;;;2.83;;
4724;SDS011;2376;53.544;10.226;2024-03-23T04:35:02;14.97;;;4.00;;
4724;SDS011;2376;53.544;10.226;2024-03-23T04:37:30;16.00;;;3.90;;
4724;SDS011;2376;53.544;10.226;2024-03-23T04:39:58;13.73;;;3.83;;
4724;SDS011;2376;53.544;10.226;2024-03-23T04:42:25;15.80;;;3.50;;
4724;SDS011;2376;53.544;10.226;2024-03-23T04:44:52;15.10;;;3.60;;
4724;SDS011;2376;53.544;10.226;2024-03-23T04:47:18;14.10;;;4.07;;
4724;SDS011;2376;53.544;10.226;2024-03-23T04:49:45;11.13;;;3.00;;
4724;SDS011;2376;53.544;10.226;2024-03-23T04:52:11;13.43;;;3.27;;
4724;SDS011;2376;53.544;10.226;2024-03-23T04:54:38;15.97;;;3.77;;
4724;SDS011;2376;53.544;10.226;2024-03-23T04:57:06;17.20;;;3.07;;
4724;SDS011;2376;53.544;10.226;2024-03-23T04:59:33;17.63;;;4.50;;
4724;SDS011;2376;53.544;10.226;2024-03-23T05:01:59;8.80;;;2.90;;
4724;SDS011;2376;53.544;10.226;2024-03-23T05:04:26;19.23;;;3.93;;
4724;SDS011;2376;53.544;10.226;2024-03-23T05:06:51;18.97;;;4.40;;
4724;SDS011;2376;53.544;10.226;2024-03-23T05:09:18;7.83;;;2.93;;
4724;SDS011;2376;53.544;10.226;2024-03-23T05:11:45;14.67;;;3.10;;
4724;SDS011;2376;53.544;10.226;2024-03-23T05:14:13;21.43;;;4.40;;
4724;SDS011;2376;53.544;10.226;2024-03-23T05:16:39;11.00;;;3.97;;
4724;SDS011;2376;53.544;10.226;2024-03-23T05:19:05;16.50;;;5.00;;
4724;SDS011;2376;53.544;10.226;2024-03-23T05:21:32;12.37;;;3.00;;
4724;SDS011;2376;53.544;10.226;2024-03-23T05:23:58;18.83;;;3.83;;
4724;SDS011;2376;53.544;10.226;2024-03-23T05:26:25;27.83;;;4.03;;
4724;SDS011;2376;53.544;10.226;2024-03-23T05:28:50;17.13;;;4.47;;
4724;SDS011;2376;53.544;10.226;2024-03-23T05:31:28;13.67;;;4.07;;
4724;SDS011;2376;53.544;10.226;2024-03-23T05:33:55;14.27;;;3.97;;
4724;SDS011;2376;53.544;10.226;2024-03-23T05:36:22;12.87;;;2.53;;
4724;SDS011;2376;53.544;10.226;2024-03-23T05:38:48;15.20;;;4.47;;
4724;SDS011;2376;53.544;10.226;2024-03-23T05:41:15;16.27;;;3.50;;
4724;SDS011;2376;53.544;10.226;2024-03-23T05:43:41;23.50;;;4.10;;
4724;SDS011;2376;53.544;10.226;2024-03-23T05:46:08;16.73;;;5.23;;
4724;SDS011;2376;53.544;10.226;2024-03-23T05:48:35;15.00;;;2.50;;
4724;SDS011;2376;53.544;10.226;2024-03-23T05:51:02;23.73;;;3.70;;
4724;SDS011;2376;53.544;10.226;2024-03-23T05:53:28;18.83;;;4.17;;
4724;SDS011;2376;53.544;10.226;2024-03-23T05:56:00;15.27;;;3.27;;
4724;SDS011;2376;53.544;10.226;2024-03-23T05:58:28;8.90;;;3.10;;
4724;SDS011;2376;53.544;10.226;2024-03-23T06:00:59;9.70;;;4.00;;
4724;SDS011;2376;53.544;10.226;2024-03-23T06:03:25;13.97;;;3.67;;
4724;SDS011;2376;53.544;10.226;2024-03-23T06:05:53;10.37;;;3.13;;
4724;SDS011;2376;53.544;10.226;2024-03-23T06:08:19;13.30;;;3.00;;
4724;SDS011;2376;53.544;10.226;2024-03-23T06:10:46;12.90;;;3.20;;
4724;SDS011;2376;53.544;10.226;2024-03-23T06:13:12;17.53;;;4.03;;
4724;SDS011;2376;53.544;10.226;2024-03-23T06:15:39;13.43;;;3.07;;
4724;SDS011;2376;53.544;10.226;2024-03-23T06:18:05;13.43;;;4.50;;
4724;SDS011;2376;53.544;10.226;2024-03-23T06:20:32;16.47;;;4.57;;
4724;SDS011;2376;53.544;10.226;2024-03-23T06:23:00;10.73;;;2.70;;
4724;SDS011;2376;53.544;10.226;2024-03-23T06:25:27;16.63;;;3.80;;
4724;SDS011;2376;53.544;10.226;2024-03-23T06:27:52;16.50;;;3.47;;
4724;SDS011;2376;53.544;10.226;2024-03-23T06:30:19;11.50;;;4.40;;
4724;SDS011;2376;53.544;10.226;2024-03-23T06:32:45;17.90;;;3.37;;
4724;SDS011;2376;53.544;10.226;2024-03-23T06:35:11;18.20;;;3.30;;
4724;SDS011;2376;53.544;10.226;2024-03-23T06:37:37;15.03;;;3.17;;
4724;SDS011;2376;53.544;10.226;2024-03-23T06:40:08;22.30;;;3.50;;
4724;SDS011;2376;53.544;10.226;2024-03-23T06:42:34;10.90;;;2.80;;
4724;SDS011;2376;53.544;10.226;2024-03-23T06:45:01;11.60;;;2.80;;
4724;SDS011;2376;53.544;10.226;2024-03-23T06:47:28;13.47;;;3.47;;
4724;SDS011;2376;53.544;10.226;2024-03-23T06:49:54;14.63;;;4.20;;
4724;SDS011;2376;53.544;10.226;2024-03-23T06:52:21;12.83;;;3.00;;
4724;SDS011;2376;53.544;10.226;2024-03-23T06:54:46;18.30;;;3.90;;
4724;SDS011;2376;53.544;10.226;2024-03-23T06:57:15;11.97;;;3.37;;
4724;SDS011;2376;53.544;10.226;2024-03-23T06:59:40;25.83;;;4.40;;
4724;SDS011;2376;53.544;10.226;2024-03-23T07:02:08;11.77;;;3.63;;
4724;SDS011;2376;53.544;10.226;2024-03-23T07:04:34;13.77;;;4.37;;
4724;SDS011;2376;53.544;10.226;2024-03-23T07:07:01;17.20;;;3.13;;
4724;SDS011;2376;53.544;10.226;2024-03-23T07:09:27;16.00;;;4.10;;
4724;SDS011;2376;53.544;10.226;2024-03-23T07:11:53;19.53;;;4.10;;
4724;SDS011;2376;53.544;10.226;2024-03-23T07:14:21;17.20;;;4.47;;
4724;SDS011;2376;53.544;10.226;2024-03-23T07:16:47;16.17;;;4.70;;
4724;SDS011;2376;53.544;10.226;2024-03-23T07:19:14;16.97;;;3.80;;
4724;SDS011;2376;53.544;10.226;2024-03-23T07:21:41;10.33;;;3.53;;
4724;SDS011;2376;53.544;10.226;2024-03-23T07:24:07;16.60;;;3.70;;
4724;SDS011;2376;53.544;10.226;2024-03-23T07:26:34;9.67;;;3.57;;
4724;SDS011;2376;53.544;10.226;2024-03-23T07:28:59;15.90;;;4.20;;
4724;SDS011;2376;53.544;10.226;2024-03-23T07:31:28;15.33;;;3.47;;
4724;SDS011;2376;53.544;10.226;2024-03-23T07:33:54;9.03;;;4.30;;
4724;SDS011;2376;53.544;10.226;2024-03-23T07:36:20;17.53;;;3.77;;
4724;SDS011;2376;53.544;10.226;2024-03-23T07:38:46;16.53;;;3.57;;
4724;SDS011;2376;53.544;10.226;2024-03-23T07:41:14;14.70;;;3.57;;
4724;SDS011;2376;53.544;10.226;2024-03-23T07:43:42;15.00;;;3.97;;
4724;SDS011;2376;53.544;10.226;2024-03-23T07:46:09;7.63;;;4.23;;
4724;SDS011;2376;53.544;10.226;2024-03-23T07:48:38;13.13;;;4.37;;
4724;SDS011;2376;53.544;10.226;2024-03-23T07:51:08;22.73;;;4.87;;
4724;SDS011;2376;53.544;10.226;2024-03-23T07:53:34;11.73;;;4.57;;
4724;SDS011;2376;53.544;10.226;2024-03-23T07:56:02;19.83;;;3.30;;
4724;SDS011;2376;53.544;10.226;2024-03-23T07:58:30;13.57;;;4.37;;
4724;SDS011;2376;53.544;10.226;2024-03-23T08:01:01;8.63;;;3.40;;
4724;SDS011;2376;53.544;10.226;2024-03-23T08:03:29;10.13;;;3.97;;
4724;SDS011;2376;53.544;10.226;2024-03-23T08:05:57;11.43;;;3.30;;
4724;SDS011;2376;53.544;10.226;2024-03-23T08:08:23;12.63;;;3.87;;
4724;SDS011;2376;53.544;10.226;2024-03-23T08:10:50;10.13;;;3.40;;
4724;SDS011;2376;53.544;10.226;2024-03-23T08:13:16;15.20;;;3.80;;
4724;SDS011;2376;53.544;10.226;2024-03-23T08:15:43;9.37;;;3.80;;
4724;SDS011;2376;53.544;10.226;2024-03-23T08:18:09;14.43;;;3.47;;
4724;SDS011;2376;53.544;10.226;2024-03-23T08:20:36;10.20;;;3.87;;
4724;SDS011;2376;53.544;10.226;2024-03-23T08:23:04;12.83;;;3.87;;
4724;SDS011;2376;53.544;10.226;2024-03-23T08:25:32;14.13;;;3.80;;
4724;SDS011;2376;53.544;10.226;2024-03-23T08:27:58;12.93;;;3.80;;
4724;SDS011;2376;53.544;10.226;2024-03-23T08:30:24;9.83;;;3.33;;
4724;SDS011;2376;53.544;10.226;2024-03-23T08:32:50;6.93;;;2.47;;
4724;SDS011;2376;53.544;10.226;2024-03-23T08:35:17;15.73;;;3.90;;
4724;SDS011;2376;53.544;10.226;2024-03-23T08:37:43;14.23;;;3.10;;
4724;SDS011;2376;53.544;10.226;2024-03-23T08:40:11;14.00;;;3.43;;
4724;SDS011;2376;53.544;10.226;2024-03-23T08:42:37;13.50;;;3.23;;
4724;SDS011;2376;53.544;10.226;2024-03-23T08:45:04;11.40;;;3.10;;
4724;SDS011;2376;53.544;10.226;2024-03-23T08:47:33;12.70;;;3.87;;
4724;SDS011;2376;53.544;10.226;2024-03-23T08:50:00;10.27;;;3.30;;
4724;SDS011;2376;53.544;10.226;2024-03-23T08:52:26;4.67;;;2.43;;
4724;SDS011;2376;53.544;10.226;2024-03-23T08:54:53;8.40;;;4.30;;
4724;SDS011;2376;53.544;10.226;2024-03-23T08:57:20;11.80;;;3.63;;
4724;SDS011;2376;53.544;10.226;2024-03-23T08:59:47;9.00;;;2.60;;
4724;SDS011;2376;53.544;10.226;2024-03-23T09:02:13;20.63;;;3.60;;
4724;SDS011;2376;53.544;10.226;2024-03-23T09:04:40;14.13;;;2.80;;
4724;SDS011;2376;53.544;10.226;2024-03-23T09:07:05;12.17;;;3.53;;
4724;SDS011;2376;53.544;10.226;2024-03-23T09:09:32;10.10;;;3.33;;
4724;SDS011;2376;53.544;10.226;2024-03-23T09:11:58;16.50;;;2.87;;
4724;SDS011;2376;53.544;10.226;2024-03-23T09:14:26;7.00;;;2.90;;
4724;SDS011;2376;53.544;10.226;2024-03-23T09:16:51;11.30;;;3.40;;
4724;SDS011;2376;53.544;10.226;2024-03-23T09:19:18;11.17;;;3.10;;
4724;SDS011;2376;53.544;10.226;2024-03-23T09:21:45;9.97;;;4.00;;
4724;SDS011;2376;53.544;10.226;2024-03-23T09:24:11;11.13;;;3.63;;
4724;SDS011;2376;53.544;10.226;2024-03-23T09:26:37;11.00;;;3.23;;
4724;SDS011;2376;53.544;10.226;2024-03-23T09:29:03;12.57;;;3.40;;
4724;SDS011;2376;53.544;10.226;2024-03-23T09:31:31;8.83;;;3.27;;
4724;SDS011;2376;53.544;10.226;2024-03-23T09:33:58;14.50;;;3.70;;
4724;SDS011;2376;53.544;10.226;2024-03-23T09:36:24;12.23;;;3.40;;
4724;SDS011;2376;53.544;10.226;2024-03-23T09:38:51;6.83;;;3.07;;
4724;SDS011;2376;53.544;10.226;2024-03-23T09:41:17;6.50;;;2.40;;
4724;SDS011;2376;53.544;10.226;2024-03-23T09:43:45;10.57;;;2.60;;
4724;SDS011;2376;53.544;10.226;2024-03-23T09:46:13;13.60;;;2.77;;
4724;SDS011;2376;53.544;10.226;2024-03-23T09:48:41;12.27;;;2.60;;
4724;SDS011;2376;53.544;10.226;2024-03-23T09:51:08;8.77;;;1.87;;
4724;SDS011;2376;53.544;10.226;2024-03-23T09:53:36;14.10;;;2.30;;
4724;SDS011;2376;53.544;10.226;2024-03-23T09:56:02;7.80;;;1.93;;
4724;SDS011;2376;53.544;10.226;2024-03-23T09:58:29;5.80;;;2.13;;
4724;SDS011;2376;53.544;10.226;2024-03-23T10:00:57;10.17;;;2.10;;
4724;SDS011;2376;53.544;10.226;2024-03-23T10:03:23;6.20;;;2.83;;
4724;SDS011;2376;53.544;10.226;2024-03-23T10:06:00;4.40;;;2.20;;
4724;SDS011;2376;53.544;10.226;2024-03-23T10:08:27;8.80;;;2.77;;
4724;SDS011;2376;53.544;10.226;2024-03-23T10:10:54;9.53;;;3.20;;
4724;SDS011;2376;53.544;10.226;2024-03-23T10:13:25;5.77;;;1.90;;
4724;SDS011;2376;53.544;10.226;2024-03-23T10:15:54;6.30;;;1.87;;
4724;SDS011;2376;53.544;10.226;2024-03-23T10:18:23;5.77;;;1.80;;
4724;SDS011;2376;53.544;10.226;2024-03-23T10:21:06;10.40;;;3.23;;
4724;SDS011;2376;53.544;10.226;2024-03-23T10:23:36;8.43;;;1.87;;
4724;SDS011;2376;53.544;10.226;2024-03-23T10:26:16;5.80;;;1.90;;
4724;SDS011;2376;53.544;10.226;2024-03-23T10:28:51;9.17;;;2.10;;
4724;SDS011;2376;53.544;10.226;2024-03-23T10:31:25;10.43;;;2.30;;
4724;SDS011;2376;53.544;10.226;2024-03-23T10:33:52;9.20;;;2.13;;
4724;SDS011;2376;53.544;10.226;2024-03-23T10:36:21;4.90;;;1.93;;
4724;SDS011;2376;53.544;10.226;2024-03-23T10:38:49;7.80;;;3.20;;
4724;SDS011;2376;53.544;10.226;2024-03-23T10:41:16;9.90;;;2.53;;
4724;SDS011;2376;53.544;10.226;2024-03-23T10:43:43;5.23;;;1.53;;
4724;SDS011;2376;53.544;10.226;2024-03-23T10:46:11;3.83;;;2.13;;
4724;SDS011;2376;53.544;10.226;2024-03-23T10:48:37;3.90;;;2.07;;
4724;SDS011;2376;53.544;10.226;2024-03-23T10:51:03;9.80;;;2.13;;
4724;SDS011;2376;53.544;10.226;2024-03-23T10:53:33;4.77;;;1.77;;
4724;SDS011;2376;53.544;10.226;2024-03-23T10:55:59;8.47;;;1.90;;
4724;SDS011;2376;53.544;10.226;2024-03-23T10:58:27;8.73;;;2.20;;
4724;SDS011;2376;53.544;10.226;2024-03-23T11:00:56;4.80;;;1.90;;
4724;SDS011;2376;53.544;10.226;2024-03-23T11:03:29;7.63;;;2.77;;
4724;SDS011;2376;53.544;10.226;2024-03-23T11:05:55;4.50;;;1.73;;
4724;SDS011;2376;53.544;10.226;2024-03-23T11:08:29;2.30;;;1.60;;
4724;SDS011;2376;53.544;10.226;2024-03-23T11:11:16;3.77;;;1.50;;
4724;SDS011;2376;53.544;10.226;2024-03-23T11:13:44;8.27;;;2.20;;
4724;SDS011;2376;53.544;10.226;2024-03-23T11:16:16;5.80;;;1.97;;
4724;SDS011;2376;53.544;10.226;2024-03-23T11:18:43;3.20;;;1.70;;
4724;SDS011;2376;53.544;10.226;2024-03-23T11:21:09;2.40;;;1.80;;
4724;SDS011;2376;53.544;10.226;2024-03-23T11:23:38;6.60;;;1.80;;
4724;SDS011;2376;53.544;10.226;2024-03-23T11:26:07;9.93;;;2.00;;
4724;SDS011;2376;53.544;10.226;2024-03-23T11:28:33;7.07;;;2.27;;
4724;SDS011;2376;53.544;10.226;2024-03-23T11:30:59;4.90;;;2.80;;
4724;SDS011;2376;53.544;10.226;2024-03-23T11:33:26;13.03;;;4.63;;
4724;SDS011;2376;53.544;10.226;2024-03-23T11:35:53;4.30;;;2.07;;
4724;SDS011;2376;53.544;10.226;2024-03-23T11:38:19;6.97;;;2.07;;
4724;SDS011;2376;53.544;10.226;2024-03-23T11:40:47;8.30;;;1.97;;
4724;SDS011;2376;53.544;10.226;2024-03-23T11:43:14;4.27;;;1.70;;
4724;SDS011;2376;53.544;10.226;2024-03-23T11:45:42;5.57;;;2.53;;
4724;SDS011;2376;53.544;10.226;2024-03-23T11:48:10;9.30;;;2.10;;
4724;SDS011;2376;53.544;10.226;2024-03-23T11:50:37;5.73;;;1.80;;
4724;SDS011;2376;53.544;10.226;2024-03-23T11:53:07;7.73;;;2.73;;
4724;SDS011;2376;53.544;10.226;2024-03-23T11:58:12;5.70;;;1.73;;
4724;SDS011;2376;53.544;10.226;2024-03-23T12:00:39;3.17;;;1.47;;
4724;SDS011;2376;53.544;10.226;2024-03-23T12:03:05;1.90;;;1.40;;
4724;SDS011;2376;53.544;10.226;2024-03-23T12:05:32;4.30;;;1.80;;
4724;SDS011;2376;53.544;10.226;2024-03-23T12:08:15;4.40;;;1.87;;
4724;SDS011;2376;53.544;10.226;2024-03-23T12:10:43;4.93;;;1.77;;
4724;SDS011;2376;53.544;10.226;2024-03-23T12:13:12;3.20;;;1.77;;
4724;SDS011;2376;53.544;10.226;2024-03-23T12:15:40;4.43;;;1.60;;
4724;SDS011;2376;53.544;10.226;2024-03-23T12:18:07;5.67;;;1.50;;
4724;SDS011;2376;53.544;10.226;2024-03-23T12:20:33;5.30;;;1.53;;
4724;SDS011;2376;53.544;10.226;2024-03-23T12:23:06;8.00;;;1.67;;
4724;SDS011;2376;53.544;10.226;2024-03-23T12:25:33;4.77;;;1.50;;
4724;SDS011;2376;53.544;10.226;2024-03-23T12:28:00;6.47;;;1.30;;
4724;SDS011;2376;53.544;10.226;2024-03-23T12:30:27;1.33;;;1.20;;
4724;SDS011;2376;53.544;10.226;2024-03-23T12:32:54;1.90;;;1.00;;
4724;SDS011;2376;53.544;10.226;2024-03-23T12:35:20;2.20;;;0.90;;
4724;SDS011;2376;53.544;10.226;2024-03-23T12:37:47;3.40;;;1.30;;
4724;SDS011;2376;53.544;10.226;2024-03-23T12:40:13;2.40;;;1.37;;
4724;SDS011;2376;53.544;10.226;2024-03-23T12:42:40;2.73;;;1.10;;
4724;SDS011;2376;53.544;10.226;2024-03-23T12:45:07;3.37;;;1.10;;
4724;SDS011;2376;53.544;10.226;2024-03-23T12:47:35;3.00;;;1.10;;
4724;SDS011;2376;53.544;10.226;2024-03-23T12:50:01;0.87;;;0.80;;
4724;SDS011;2376;53.544;10.226;2024-03-23T12:52:28;4.83;;;1.00;;
4724;SDS011;2376;53.544;10.226;2024-03-23T12:54:55;1.80;;;1.03;;
4724;SDS011;2376;53.544;10.226;2024-03-23T12:57:22;6.83;;;1.37;;
4724;SDS011;2376;53.544;10.226;2024-03-23T12:59:49;2.23;;;1.43;;
4724;SDS011;2376;53.544;10.226;2024-03-23T13:02:18;3.33;;;1.93;;
4724;SDS011;2376;53.544;10.226;2024-03-23T13:04:46;1.43;;;0.80;;
4724;SDS011;2376;53.544;10.226;2024-03-23T13:07:15;0.87;;;0.87;;
4724;SDS011;2376;53.544;10.226;2024-03-23T13:09:41;0.93;;;0.90;;
4724;SDS011;2376;53.544;10.226;2024-03-23T13:12:08;2.53;;;0.80;;
4724;SDS011;2376;53.544;10.226;2024-03-23T13:14:34;1.63;;;0.70;;
4724;SDS011;2376;53.544;10.226;2024-03-23T13:17:00;1.83;;;0.80;;
4724;SDS011;2376;53.544;10.226;2024-03-23T13:19:27;1.57;;;0.87;;
4724;SDS011;2376;53.544;10.226;2024-03-23T13:21:57;4.37;;;1.10;;
4724;SDS011;2376;53.544;10.226;2024-03-23T13:24:23;0.87;;;0.83;;
4724;SDS011;2376;53.544;10.226;2024-03-23T13:26:50;2.10;;;1.20;;
4724;SDS011;2376;53.544;10.226;2024-03-23T13:29:16;1.10;;;0.97;;
4724;SDS011;2376;53.544;10.226;2024-03-23T13:31:43;2.90;;;1.30;;
4724;SDS011;2376;53.544;10.226;2024-03-23T13:34:09;1.37;;;1.10;;
4724;SDS011;2376;53.544;10.226;2024-03-23T13:36:36;5.00;;;1.50;;
4724;SDS011;2376;53.544;10.226;2024-03-23T13:39:03;3.70;;;1.63;;
4724;SDS011;2376;53.544;10.226;2024-03-23T13:41:36;1.30;;;1.20;;
4724;SDS011;2376;53.544;10.226;2024-03-23T13:44:03;2.40;;;1.20;;
4724;SDS011;2376;53.544;10.226;2024-03-23T13:46:30;3.10;;;0.90;;
4724;SDS011;2376;53.544;10.226;2024-03-23T13:48:55;2.90;;;0.93;;
4724;SDS011;2376;53.544;10.226;2024-03-23T13:51:22;2.33;;;1.23;;
4724;SDS011;2376;53.544;10.226;2024-03-23T13:53:49;1.37;;;0.90;;
4724;SDS011;2376;53.544;10.226;2024-03-23T13:56:17;3.03;;;1.37;;
4724;SDS011;2376;53.544;10.226;2024-03-23T13:58:43;1.20;;;1.00;;
4724;SDS011;2376;53.544;10.226;2024-03-23T14:01:12;2.80;;;1.27;;
4724;SDS011;2376;53.544;10.226;2024-03-23T14:03:38;1.87;;;1.40;;
4724;SDS011;2376;53.544;10.226;2024-03-23T14:06:05;1.43;;;1.10;;
4724;SDS011;2376;53.544;10.226;2024-03-23T14:08:32;1.80;;;1.50;;
4724;SDS011;2376;53.544;10.226;2024-03-23T14:11:01;2.00;;;0.90;;
4724;SDS011;2376;53.544;10.226;2024-03-23T14:13:29;1.20;;;1.10;;
4724;SDS011;2376;53.544;10.226;2024-03-23T14:15:56;2.17;;;0.90;;
4724;SDS011;2376;53.544;10.226;2024-03-23T14:18:22;2.47;;;1.00;;
4724;SDS011;2376;53.544;10.226;2024-03-23T14:20:49;2.80;;;0.87;;
4724;SDS011;2376;53.544;10.226;2024-03-23T14:23:14;3.67;;;1.10;;
4724;SDS011;2376;53.544;10.226;2024-03-23T14:25:42;0.97;;;0.87;;
4724;SDS011;2376;53.544;10.226;2024-03-23T14:28:07;1.10;;;0.90;;
4724;SDS011;2376;53.544;10.226;2024-03-23T14:30:40;1.70;;;0.97;;
4724;SDS011;2376;53.544;10.226;2024-03-23T14:33:06;4.63;;;1.03;;
4724;SDS011;2376;53.544;10.226;2024-03-23T14:35:33;1.73;;;0.97;;
4724;SDS011;2376;53.544;10.226;2024-03-23T14:37:59;1.00;;;0.90;;
4724;SDS011;2376;53.544;10.226;2024-03-23T14:40:25;2.37;;;1.03;;
4724;SDS011;2376;53.544;10.226;2024-03-23T14:42:52;2.30;;;1.37;;
4724;SDS011;2376;53.544;10.226;2024-03-23T14:45:19;2.70;;;1.10;;
4724;SDS011;2376;53.544;10.226;2024-03-23T14:47:46;10.30;;;1.30;;
4724;SDS011;2376;53.544;10.226;2024-03-23T14:50:13;1.50;;;1.00;;
4724;SDS011;2376;53.544;10.226;2024-03-23T14:52:40;1.80;;;1.47;;
4724;SDS011;2376;53.544;10.226;2024-03-23T14:55:07;2.40;;;1.77;;
4724;SDS011;2376;53.544;10.226;2024-03-23T14:57:34;2.93;;;1.60;;
4724;SDS011;2376;53.544;10.226;2024-03-23T15:00:01;3.33;;;1.13;;
4724;SDS011;2376;53.544;10.226;2024-03-23T15:02:29;3.60;;;1.27;;
4724;SDS011;2376;53.544;10.226;2024-03-23T15:04:58;4.80;;;1.27;;
4724;SDS011;2376;53.544;10.226;2024-03-23T15:07:24;2.50;;;1.30;;
4724;SDS011;2376;53.544;10.226;2024-03-23T15:09:50;4.30;;;2.00;;
4724;SDS011;2376;53.544;10.226;2024-03-23T15:12:16;3.37;;;1.43;;
4724;SDS011;2376;53.544;10.226;2024-03-23T15:14:43;1.37;;;1.27;;
4724;SDS011;2376;53.544;10.226;2024-03-23T15:17:08;2.40;;;1.23;;
4724;SDS011;2376;53.544;10.226;2024-03-23T15:19:35;1.67;;;1.30;;
4724;SDS011;2376;53.544;10.226;2024-03-23T15:22:02;2.30;;;1.40;;
4724;SDS011;2376;53.544;10.226;2024-03-23T15:24:29;1.07;;;0.80;;
4724;SDS011;2376;53.544;10.226;2024-03-23T15:26:56;5.90;;;1.13;;
4724;SDS011;2376;53.544;10.226;2024-03-23T15:29:23;1.70;;;0.90;;
4724;SDS011;2376;53.544;10.226;2024-03-23T15:31:49;1.37;;;1.03;;
4724;SDS011;2376;53.544;10.226;2024-03-23T15:34:17;9.20;;;1.20;;
4724;SDS011;2376;53.544;10.226;2024-03-23T15:36:44;1.90;;;1.10;;
4724;SDS011;2376;53.544;10.226;2024-03-23T15:39:12;3.33;;;2.40;;
4724;SDS011;2376;53.544;10.226;2024-03-23T15:41:39;2.22;;;1.08;;
4724;SDS011;2376;53.544;10.226;2024-03-23T15:44:05;2.03;;;1.10;;
4724;SDS011;2376;53.544;10.226;2024-03-23T15:46:31;2.53;;;0.93;;
4724;SDS011;2376;53.544;10.226;2024-03-23T15:48:58;0.87;;;0.83;;
4724;SDS011;2376;53.544;10.226;2024-03-23T15:51:24;1.47;;;1.00;;